sensor_id;sensor_type;location;lat;lon;timestamp;pressure;altitude;pressure_sealevel;temperature;humidity
21100;BME280;10708;50.824;4.408;2023-05-13T00:00:51;101066.47;;;13.23;100.00
21100;BME280;10708;50.824;4.408;2023-05-13T00:05:53;101072.88;;;13.17;100.00
21100;BME280;10708;50.824;4.408;2023-05-13T00:10:56;101070.31;;;13.14;100.00
21100;BME280;10708;50.824;4.408;2023-05-13T00:15:59;101074.78;;;13.12;100.00
21100;BME280;10708;50.824;4.408;2023-05-13T00:21:01;101068.63;;;13.12;100.00
21100;BME280;10708;50.824;4.408;2023-05-13T00:26:04;101079.25;;;13.10;100.00
21100;BME280;10708;50.824;4.408;2023-05-13T00:31:07;101082.03;;;13.07;100.00
21100;BME280;10708;50.824;4.408;2023-05-13T00:36:12;101060.41;;;12.96;100.00
21100;BME280;10708;50.824;4.408;2023-05-13T00:41:14;101061.03;;;13.03;100.00
21100;BME280;10708;50.824;4.408;2023-05-13T00:46:17;101055.91;;;12.98;100.00
21100;BME280;10708;50.824;4.408;2023-05-13T00:51:19;101057.81;;;12.94;100.00
21100;BME280;10708;50.824;4.408;2023-05-13T00:56:21;101060.41;;;12.96;100.00
21100;BME280;10708;50.824;4.408;2023-05-13T01:01:29;101065.75;;;12.94;100.00
21100;BME280;10708;50.824;4.408;2023-05-13T01:06:39;101059.59;;;12.94;100.00
21100;BME280;10708;50.824;4.408;2023-05-13T01:11:48;101067.47;;;12.96;100.00
21100;BME280;10708;50.824;4.408;2023-05-13T01:17:00;101070.00;;;12.99;100.00
21100;BME280;10708;50.824;4.408;2023-05-13T01:22:04;101066.47;;;12.98;100.00
21100;BME280;10708;50.824;4.408;2023-05-13T01:27:07;101065.66;;;12.98;100.00
21100;BME280;10708;50.824;4.408;2023-05-13T01:32:10;101064.78;;;12.97;100.00
21100;BME280;10708;50.824;4.408;2023-05-13T01:37:13;101070.81;;;13.01;100.00
21100;BME280;10708;50.824;4.408;2023-05-13T01:42:16;101058.63;;;12.97;100.00
21100;BME280;10708;50.824;4.408;2023-05-13T01:47:18;101077.06;;;12.98;100.00
21100;BME280;10708;50.824;4.408;2023-05-13T01:52:21;101070.84;;;12.99;100.00
21100;BME280;10708;50.824;4.408;2023-05-13T01:57:23;101071.09;;;12.93;100.00
21100;BME280;10708;50.824;4.408;2023-05-13T02:02:25;101071.72;;;13.00;100.00
21100;BME280;10708;50.824;4.408;2023-05-13T02:07:28;101078.06;;;12.96;100.00
21100;BME280;10708;50.824;4.408;2023-05-13T02:12:30;101077.19;;;12.95;100.00
21100;BME280;10708;50.824;4.408;2023-05-13T02:17:32;101079.03;;;12.93;100.00
21100;BME280;10708;50.824;4.408;2023-05-13T02:22:35;101067.88;;;12.85;100.00
21100;BME280;10708;50.824;4.408;2023-05-13T02:27:37;101081.91;;;12.87;100.00
21100;BME280;10708;50.824;4.408;2023-05-13T02:32:39;101076.84;;;12.81;100.00
21100;BME280;10708;50.824;4.408;2023-05-13T02:37:45;101073.47;;;12.77;100.00
21100;BME280;10708;50.824;4.408;2023-05-13T02:42:47;101078.03;;;12.72;100.00
21100;BME280;10708;50.824;4.408;2023-05-13T02:47:50;101074.44;;;12.75;100.00
21100;BME280;10708;50.824;4.408;2023-05-13T02:52:53;101079.81;;;12.72;100.00
21100;BME280;10708;50.824;4.408;2023-05-13T02:57:55;101076.09;;;12.77;100.00
21100;BME280;10708;50.824;4.408;2023-05-13T03:02:57;101078.75;;;12.77;100.00
21100;BME280;10708;50.824;4.408;2023-05-13T03:08:01;101087.50;;;12.78;100.00
21100;BME280;10708;50.824;4.408;2023-05-13T03:13:03;101076.16;;;12.76;100.00
21100;BME280;10708;50.824;4.408;2023-05-13T03:18:05;101075.16;;;12.78;100.00
21100;BME280;10708;50.824;4.408;2023-05-13T03:23:08;101078.75;;;12.77;100.00
21100;BME280;10708;50.824;4.408;2023-05-13T03:28:10;101077.94;;;12.75;100.00
21100;BME280;10708;50.824;4.408;2023-05-13T03:33:12;101082.34;;;12.75;100.00
21100;BME280;10708;50.824;4.408;2023-05-13T03:38:15;101077.06;;;12.75;100.00
21100;BME280;10708;50.824;4.408;2023-05-13T03:43:17;101077.16;;;12.72;100.00
21100;BME280;10708;50.824;4.408;2023-05-13T03:48:19;101085.44;;;12.63;100.00
21100;BME280;10708;50.824;4.408;2023-05-13T03:53:23;101075.00;;;12.58;100.00
21100;BME280;10708;50.824;4.408;2023-05-13T03:58:24;101081.34;;;12.54;100.00
21100;BME280;10708;50.824;4.408;2023-05-13T04:03:26;101089.53;;;12.46;100.00
21100;BME280;10708;50.824;4.408;2023-05-13T04:08:30;101092.25;;;12.45;100.00
21100;BME280;10708;50.824;4.408;2023-05-13T04:13:33;101090.59;;;12.41;100.00
21100;BME280;10708;50.824;4.408;2023-05-13T04:18:35;101092.28;;;12.43;100.00
21100;BME280;10708;50.824;4.408;2023-05-13T04:23:38;101088.78;;;12.43;100.00
21100;BME280;10708;50.824;4.408;2023-05-13T04:28:40;101096.66;;;12.44;100.00
21100;BME280;10708;50.824;4.408;2023-05-13T04:33:42;101099.06;;;12.50;100.00
21100;BME280;10708;50.824;4.408;2023-05-13T04:38:46;101115.69;;;12.54;100.00
21100;BME280;10708;50.824;4.408;2023-05-13T04:43:48;101115.69;;;12.54;100.00
21100;BME280;10708;50.824;4.408;2023-05-13T04:48:50;101117.25;;;12.60;100.00
21100;BME280;10708;50.824;4.408;2023-05-13T04:53:53;101112.78;;;12.62;100.00
21100;BME280;10708;50.824;4.408;2023-05-13T04:58:55;101118.63;;;12.70;100.00
21100;BME280;10708;50.824;4.408;2023-05-13T05:03:57;101128.34;;;12.69;100.00
21100;BME280;10708;50.824;4.408;2023-05-13T05:09:00;101127.34;;;12.73;100.00
21100;BME280;10708;50.824;4.408;2023-05-13T05:14:02;101132.25;;;12.84;100.00
21100;BME280;10708;50.824;4.408;2023-05-13T05:19:04;101135.69;;;12.86;100.00
21100;BME280;10708;50.824;4.408;2023-05-13T05:24:07;101150.16;;;12.76;100.00
21100;BME280;10708;50.824;4.408;2023-05-13T05:29:09;101148.91;;;12.86;100.00
21100;BME280;10708;50.824;4.408;2023-05-13T05:34:11;101137.56;;;12.82;100.00
21100;BME280;10708;50.824;4.408;2023-05-13T05:39:15;101138.38;;;12.84;100.00
21100;BME280;10708;50.824;4.408;2023-05-13T05:44:17;101154.94;;;12.89;100.00
21100;BME280;10708;50.824;4.408;2023-05-13T05:49:19;101148.72;;;12.90;100.00
21100;BME280;10708;50.824;4.408;2023-05-13T05:54:22;101154.53;;;13.00;100.00
21100;BME280;10708;50.824;4.408;2023-05-13T05:59:24;101154.75;;;13.19;100.00
21100;BME280;10708;50.824;4.408;2023-05-13T06:04:26;101159.59;;;13.31;100.00
21100;BME280;10708;50.824;4.408;2023-05-13T06:09:29;101157.13;;;13.50;100.00
21100;BME280;10708;50.824;4.408;2023-05-13T06:14:31;101171.94;;;13.77;100.00
21100;BME280;10708;50.824;4.408;2023-05-13T06:19:33;101167.22;;;13.85;100.00
21100;BME280;10708;50.824;4.408;2023-05-13T06:24:37;101165.97;;;13.94;100.00
21100;BME280;10708;50.824;4.408;2023-05-13T06:29:42;101165.34;;;14.09;100.00
21100;BME280;10708;50.824;4.408;2023-05-13T06:34:44;101175.66;;;14.17;100.00
21100;BME280;10708;50.824;4.408;2023-05-13T06:39:47;101166.88;;;14.36;100.00
21100;BME280;10708;50.824;4.408;2023-05-13T06:44:49;101169.94;;;14.48;100.00
21100;BME280;10708;50.824;4.408;2023-05-13T06:49:51;101163.00;;;14.86;100.00
21100;BME280;10708;50.824;4.408;2023-05-13T06:54:55;101164.16;;;15.77;100.00
21100;BME280;10708;50.824;4.408;2023-05-13T06:59:57;101175.66;;;17.17;100.00
21100;BME280;10708;50.824;4.408;2023-05-13T07:04:59;101169.34;;;18.29;100.00
21100;BME280;10708;50.824;4.408;2023-05-13T07:10:02;101169.97;;;19.51;100.00
21100;BME280;10708;50.824;4.408;2023-05-13T07:15:05;101152.44;;;19.88;100.00
21100;BME280;10708;50.824;4.408;2023-05-13T07:20:08;101177.66;;;20.65;100.00
21100;BME280;10708;50.824;4.408;2023-05-13T07:25:13;101155.84;;;20.83;100.00
21100;BME280;10708;50.824;4.408;2023-05-13T07:30:18;101151.66;;;21.05;100.00
21100;BME280;10708;50.824;4.408;2023-05-13T07:35:20;101136.53;;;20.78;100.00
21100;BME280;10708;50.824;4.408;2023-05-13T07:40:24;101133.16;;;21.63;100.00
21100;BME280;10708;50.824;4.408;2023-05-13T07:45:26;101136.97;;;22.32;100.00
21100;BME280;10708;50.824;4.408;2023-05-13T07:50:29;101125.66;;;22.16;100.00
21100;BME280;10708;50.824;4.408;2023-05-13T07:55:33;101121.53;;;22.12;100.00
21100;BME280;10708;50.824;4.408;2023-05-13T08:00:35;101123.50;;;22.21;100.00
21100;BME280;10708;50.824;4.408;2023-05-13T08:05:38;101115.34;;;22.23;100.00
21100;BME280;10708;50.824;4.408;2023-05-13T08:10:42;101112.91;;;21.96;100.00
21100;BME280;10708;50.824;4.408;2023-05-13T08:15:44;101120.97;;;21.83;100.00
21100;BME280;10708;50.824;4.408;2023-05-13T08:20:46;101122.38;;;21.76;100.00
21100;BME280;10708;50.824;4.408;2023-05-13T08:25:50;101122.59;;;21.49;100.00
21100;BME280;10708;50.824;4.408;2023-05-13T08:30:52;101112.34;;;21.30;100.00
21100;BME280;10708;50.824;4.408;2023-05-13T08:35:54;101118.13;;;21.73;100.00
21100;BME280;10708;50.824;4.408;2023-05-13T08:40:58;101121.66;;;21.74;100.00
21100;BME280;10708;50.824;4.408;2023-05-13T08:46:02;101125.06;;;22.48;100.00
21100;BME280;10708;50.824;4.408;2023-05-13T08:51:04;101118.28;;;22.66;100.00
21100;BME280;10708;50.824;4.408;2023-05-13T08:56:09;101119.84;;;23.14;100.00
21100;BME280;10708;50.824;4.408;2023-05-13T09:01:12;101115.00;;;22.73;100.00
21100;BME280;10708;50.824;4.408;2023-05-13T09:06:15;101108.78;;;22.73;100.00
21100;BME280;10708;50.824;4.408;2023-05-13T09:11:18;101112.44;;;22.72;100.00
21100;BME280;10708;50.824;4.408;2023-05-13T09:16:22;101113.91;;;22.65;100.00
21100;BME280;10708;50.824;4.408;2023-05-13T09:21:25;101121.28;;;22.50;100.00
21100;BME280;10708;50.824;4.408;2023-05-13T09:26:29;101107.84;;;22.04;100.00
21100;BME280;10708;50.824;4.408;2023-05-13T09:31:32;101108.84;;;22.14;100.00
21100;BME280;10708;50.824;4.408;2023-05-13T09:36:34;101114.72;;;21.95;100.00
21100;BME280;10708;50.824;4.408;2023-05-13T09:41:37;101115.63;;;21.83;100.00
21100;BME280;10708;50.824;4.408;2023-05-13T09:46:41;101122.97;;;21.92;100.00
21100;BME280;10708;50.824;4.408;2023-05-13T09:51:44;101113.31;;;21.90;100.00
21100;BME280;10708;50.824;4.408;2023-05-13T09:56:48;101109.69;;;21.91;100.00
21100;BME280;10708;50.824;4.408;2023-05-13T10:01:50;101100.53;;;22.06;100.00
21100;BME280;10708;50.824;4.408;2023-05-13T10:06:53;101092.44;;;22.30;100.00
21100;BME280;10708;50.824;4.408;2023-05-13T10:11:58;101103.66;;;22.24;100.00
21100;BME280;10708;50.824;4.408;2023-05-13T10:17:01;101083.31;;;22.78;100.00
21100;BME280;10708;50.824;4.408;2023-05-13T10:22:05;101084.41;;;23.32;100.00
21100;BME280;10708;50.824;4.408;2023-05-13T10:27:10;101085.19;;;23.77;100.00
21100;BME280;10708;50.824;4.408;2023-05-13T10:32:20;101072.41;;;23.47;100.00
21100;BME280;10708;50.824;4.408;2023-05-13T10:43:15;101075.38;;;23.87;100.00
21100;BME280;10708;50.824;4.408;2023-05-13T10:48:17;101077.00;;;24.10;100.00
21100;BME280;10708;50.824;4.408;2023-05-13T10:53:22;101061.16;;;23.96;100.00
21100;BME280;10708;50.824;4.408;2023-05-13T10:58:31;101068.41;;;23.96;100.00
21100;BME280;10708;50.824;4.408;2023-05-13T11:03:33;101064.00;;;23.18;100.00
21100;BME280;10708;50.824;4.408;2023-05-13T11:08:38;101054.41;;;22.47;100.00
21100;BME280;10708;50.824;4.408;2023-05-13T11:13:43;101051.63;;;22.02;100.00
21100;BME280;10708;50.824;4.408;2023-05-13T11:18:45;101058.91;;;21.77;100.00
21100;BME280;10708;50.824;4.408;2023-05-13T11:23:51;101047.97;;;21.56;100.00
21100;BME280;10708;50.824;4.408;2023-05-13T11:29:03;101052.41;;;21.44;100.00
21100;BME280;10708;50.824;4.408;2023-05-13T11:34:10;101055.69;;;21.24;100.00
21100;BME280;10708;50.824;4.408;2023-05-13T11:39:14;101049.47;;;21.23;100.00
21100;BME280;10708;50.824;4.408;2023-05-13T11:44:19;101045.22;;;20.95;100.00
21100;BME280;10708;50.824;4.408;2023-05-13T11:49:43;101022.19;;;20.80;100.00
21100;BME280;10708;50.824;4.408;2023-05-13T11:54:47;101023.34;;;20.89;100.00
21100;BME280;10708;50.824;4.408;2023-05-13T11:59:57;101029.00;;;21.10;100.00
21100;BME280;10708;50.824;4.408;2023-05-13T12:05:01;101020.75;;;21.25;100.00
21100;BME280;10708;50.824;4.408;2023-05-13T12:10:05;101014.97;;;21.19;100.00
21100;BME280;10708;50.824;4.408;2023-05-13T12:15:11;101015.81;;;21.07;100.00
21100;BME280;10708;50.824;4.408;2023-05-13T12:20:15;101014.38;;;21.39;100.00
21100;BME280;10708;50.824;4.408;2023-05-13T12:25:40;101005.53;;;21.13;100.00
21100;BME280;10708;50.824;4.408;2023-05-13T12:30:49;101004.28;;;21.43;100.00
21100;BME280;10708;50.824;4.408;2023-05-13T12:35:53;101002.22;;;21.22;100.00
21100;BME280;10708;50.824;4.408;2023-05-13T12:40:56;101003.94;;;21.23;100.00
21100;BME280;10708;50.824;4.408;2023-05-13T12:45:59;101001.25;;;21.23;100.00
21100;BME280;10708;50.824;4.408;2023-05-13T12:51:02;100994.66;;;21.40;100.00
21100;BME280;10708;50.824;4.408;2023-05-13T12:56:05;100990.53;;;21.71;100.00
21100;BME280;10708;50.824;4.408;2023-05-13T13:01:08;100988.97;;;21.80;100.00
21100;BME280;10708;50.824;4.408;2023-05-13T13:06:14;100975.31;;;22.06;100.00
21100;BME280;10708;50.824;4.408;2023-05-13T13:11:17;100992.13;;;21.73;100.00
21100;BME280;10708;50.824;4.408;2023-05-13T13:16:25;100992.25;;;21.72;100.00
21100;BME280;10708;50.824;4.408;2023-05-13T13:21:27;100995.88;;;21.71;100.00
21100;BME280;10708;50.824;4.408;2023-05-13T13:26:30;100991.59;;;21.92;100.00
21100;BME280;10708;50.824;4.408;2023-05-13T13:31:33;100977.19;;;21.58;100.00
21100;BME280;10708;50.824;4.408;2023-05-13T13:36:35;100990.53;;;21.71;100.00
21100;BME280;10708;50.824;4.408;2023-05-13T13:41:38;100975.69;;;21.78;100.00
21100;BME280;10708;50.824;4.408;2023-05-13T13:46:41;100965.63;;;21.93;100.00
21100;BME280;10708;50.824;4.408;2023-05-13T13:51:43;100971.56;;;22.20;100.00
21100;BME280;10708;50.824;4.408;2023-05-13T13:56:45;100971.59;;;21.96;100.00
21100;BME280;10708;50.824;4.408;2023-05-13T14:01:52;100960.00;;;21.85;100.00
21100;BME280;10708;50.824;4.408;2023-05-13T14:06:54;100963.69;;;21.95;100.00
21100;BME280;10708;50.824;4.408;2023-05-13T14:11:56;100962.66;;;21.73;100.00
21100;BME280;10708;50.824;4.408;2023-05-13T14:17:00;100961.38;;;21.55;100.00
21100;BME280;10708;50.824;4.408;2023-05-13T14:22:02;100953.00;;;21.71;100.00
21100;BME280;10708;50.824;4.408;2023-05-13T14:27:05;100943.72;;;21.99;100.00
21100;BME280;10708;50.824;4.408;2023-05-13T14:32:08;100945.94;;;21.70;100.00
21100;BME280;10708;50.824;4.408;2023-05-13T14:37:10;100938.69;;;21.59;100.00
21100;BME280;10708;50.824;4.408;2023-05-13T14:42:13;100948.88;;;21.43;100.00
21100;BME280;10708;50.824;4.408;2023-05-13T14:47:16;100937.19;;;21.44;100.00
21100;BME280;10708;50.824;4.408;2023-05-13T14:52:18;100933.38;;;21.70;100.00
21100;BME280;10708;50.824;4.408;2023-05-13T14:57:21;100922.94;;;21.90;100.00
21100;BME280;10708;50.824;4.408;2023-05-13T15:02:25;100916.31;;;22.06;100.00
21100;BME280;10708;50.824;4.408;2023-05-13T15:07:28;100916.13;;;21.97;100.00
21100;BME280;10708;50.824;4.408;2023-05-13T15:12:30;100905.22;;;22.00;100.00
21100;BME280;10708;50.824;4.408;2023-05-13T15:17:33;100909.09;;;22.07;100.00
21100;BME280;10708;50.824;4.408;2023-05-13T15:22:35;100914.38;;;22.20;100.00
21100;BME280;10708;50.824;4.408;2023-05-13T15:27:37;100912.31;;;22.23;100.00
21100;BME280;10708;50.824;4.408;2023-05-13T15:32:41;100907.38;;;21.95;100.00
21100;BME280;10708;50.824;4.408;2023-05-13T15:37:44;100910.56;;;21.54;100.00
21100;BME280;10708;50.824;4.408;2023-05-13T15:42:49;100917.75;;;21.53;100.00
21100;BME280;10708;50.824;4.408;2023-05-13T15:47:53;100924.97;;;21.64;100.00
21100;BME280;10708;50.824;4.408;2023-05-13T15:52:55;100912.53;;;21.63;100.00
21100;BME280;10708;50.824;4.408;2023-05-13T15:57:57;100923.00;;;21.55;100.00
21100;BME280;10708;50.824;4.408;2023-05-13T16:03:01;100926.00;;;21.50;100.00
21100;BME280;10708;50.824;4.408;2023-05-13T16:08:03;100912.41;;;21.64;100.00
21100;BME280;10708;50.824;4.408;2023-05-13T16:13:05;100910.78;;;21.86;100.00
21100;BME280;10708;50.824;4.408;2023-05-13T16:18:08;100914.63;;;21.70;100.00
21100;BME280;10708;50.824;4.408;2023-05-13T16:23:10;100930.94;;;21.32;100.00
21100;BME280;10708;50.824;4.408;2023-05-13T16:28:12;100931.78;;;20.96;100.00
21100;BME280;10708;50.824;4.408;2023-05-13T16:33:16;100918.16;;;20.76;100.00
21100;BME280;10708;50.824;4.408;2023-05-13T16:38:18;100919.00;;;20.76;100.00
21100;BME280;10708;50.824;4.408;2023-05-13T16:43:20;100920.31;;;20.58;100.00
21100;BME280;10708;50.824;4.408;2023-05-13T16:48:24;100903.66;;;20.54;100.00
21100;BME280;10708;50.824;4.408;2023-05-13T16:53:26;100897.75;;;20.49;100.00
21100;BME280;10708;50.824;4.408;2023-05-13T16:58:28;100889.22;;;20.44;100.00
21100;BME280;10708;50.824;4.408;2023-05-13T17:03:31;100892.84;;;20.43;100.00
21100;BME280;10708;50.824;4.408;2023-05-13T17:08:33;100891.47;;;20.38;100.00
21100;BME280;10708;50.824;4.408;2023-05-13T17:13:36;100891.88;;;20.32;100.00
21100;BME280;10708;50.824;4.408;2023-05-13T17:18:39;100891.31;;;20.26;100.00
21100;BME280;10708;50.824;4.408;2023-05-13T17:23:41;100888.03;;;20.23;100.00
21100;BME280;10708;50.824;4.408;2023-05-13T17:28:43;100898.84;;;20.21;100.00
21100;BME280;10708;50.824;4.408;2023-05-13T17:33:46;100892.44;;;20.11;100.00
21100;BME280;10708;50.824;4.408;2023-05-13T17:38:49;100911.59;;;20.05;100.00
21100;BME280;10708;50.824;4.408;2023-05-13T17:43:51;100933.59;;;20.09;100.00
21100;BME280;10708;50.824;4.408;2023-05-13T17:48:55;100949.84;;;20.18;100.00
21100;BME280;10708;50.824;4.408;2023-05-13T17:53:57;100956.72;;;20.22;100.00
21100;BME280;10708;50.824;4.408;2023-05-13T17:58:59;100959.16;;;20.00;100.00
21100;BME280;10708;50.824;4.408;2023-05-13T18:04:02;100959.50;;;19.69;100.00
21100;BME280;10708;50.824;4.408;2023-05-13T18:09:04;100955.97;;;19.68;100.00
21100;BME280;10708;50.824;4.408;2023-05-13T18:14:06;100959.41;;;19.43;100.00
21100;BME280;10708;50.824;4.408;2023-05-13T18:19:09;100959.69;;;19.26;100.00
21100;BME280;10708;50.824;4.408;2023-05-13T18:24:11;100967.16;;;19.07;100.00
21100;BME280;10708;50.824;4.408;2023-05-13T18:29:13;100978.06;;;18.90;100.00
21100;BME280;10708;50.824;4.408;2023-05-13T18:34:17;100980.75;;;18.75;100.00
21100;BME280;10708;50.824;4.408;2023-05-13T18:39:19;100987.13;;;18.59;100.00
21100;BME280;10708;50.824;4.408;2023-05-13T18:44:21;100988.56;;;18.36;100.00
21100;BME280;10708;50.824;4.408;2023-05-13T18:49:25;100987.09;;;18.16;100.00
21100;BME280;10708;50.824;4.408;2023-05-13T18:54:28;100996.00;;;18.01;100.00
21100;BME280;10708;50.824;4.408;2023-05-13T18:59:30;101017.47;;;17.84;100.00
21100;BME280;10708;50.824;4.408;2023-05-13T19:04:34;101016.63;;;17.67;100.00
21100;BME280;10708;50.824;4.408;2023-05-13T19:09:39;101017.72;;;17.48;100.00
21100;BME280;10708;50.824;4.408;2023-05-13T19:14:41;101030.38;;;17.28;100.00
21100;BME280;10708;50.824;4.408;2023-05-13T19:19:44;101029.00;;;17.06;100.00
21100;BME280;10708;50.824;4.408;2023-05-13T19:24:47;101033.44;;;16.89;100.00
21100;BME280;10708;50.824;4.408;2023-05-13T19:29:49;101044.38;;;16.68;100.00
21100;BME280;10708;50.824;4.408;2023-05-13T19:34:52;101054.00;;;16.53;100.00
21100;BME280;10708;50.824;4.408;2023-05-13T19:39:54;101053.69;;;16.42;100.00
21100;BME280;10708;50.824;4.408;2023-05-13T19:44:56;101070.28;;;16.30;100.00
21100;BME280;10708;50.824;4.408;2023-05-13T19:50:00;101083.81;;;16.25;100.00
21100;BME280;10708;50.824;4.408;2023-05-13T19:55:03;101109.75;;;16.20;100.00
21100;BME280;10708;50.824;4.408;2023-05-13T20:00:08;101111.72;;;16.16;100.00
21100;BME280;10708;50.824;4.408;2023-05-13T20:05:11;101105.75;;;15.94;100.00
21100;BME280;10708;50.824;4.408;2023-05-13T20:10:14;101110.91;;;15.61;100.00
21100;BME280;10708;50.824;4.408;2023-05-13T20:15:16;101111.50;;;15.47;100.00
21100;BME280;10708;50.824;4.408;2023-05-13T20:20:20;101108.94;;;15.27;100.00
21100;BME280;10708;50.824;4.408;2023-05-13T20:25:22;101104.47;;;15.09;100.00
21100;BME280;10708;50.824;4.408;2023-05-13T20:30:24;101106.59;;;14.82;100.00
21100;BME280;10708;50.824;4.408;2023-05-13T20:35:27;101112.50;;;14.68;100.00
21100;BME280;10708;50.824;4.408;2023-05-13T20:40:29;101119.94;;;14.60;100.00
21100;BME280;10708;50.824;4.408;2023-05-13T20:45:31;101123.19;;;14.47;100.00
21100;BME280;10708;50.824;4.408;2023-05-13T20:50:37;101111.28;;;14.35;100.00
21100;BME280;10708;50.824;4.408;2023-05-13T20:55:39;101115.31;;;14.23;100.00
21100;BME280;10708;50.824;4.408;2023-05-13T21:00:41;101098.69;;;14.20;100.00
21100;BME280;10708;50.824;4.408;2023-05-13T21:05:44;101090.53;;;14.04;100.00
21100;BME280;10708;50.824;4.408;2023-05-13T21:10:46;101090.66;;;14.01;100.00
21100;BME280;10708;50.824;4.408;2023-05-13T21:15:48;101094.28;;;13.98;100.00
21100;BME280;10708;50.824;4.408;2023-05-13T21:20:52;101089.25;;;13.92;100.00
21100;BME280;10708;50.824;4.408;2023-05-13T21:25:54;101100.31;;;13.80;100.00
21100;BME280;10708;50.824;4.408;2023-05-13T21:30:56;101096.28;;;13.72;100.00
21100;BME280;10708;50.824;4.408;2023-05-13T21:36:00;101097.56;;;13.61;100.00
21100;BME280;10708;50.824;4.408;2023-05-13T21:41:02;101101.84;;;13.42;100.00
21100;BME280;10708;50.824;4.408;2023-05-13T21:46:04;101100.44;;;13.34;100.00
21100;BME280;10708;50.824;4.408;2023-05-13T21:51:07;101097.84;;;13.32;100.00
21100;BME280;10708;50.824;4.408;2023-05-13T21:56:09;101090.31;;;13.21;100.00
21100;BME280;10708;50.824;4.408;2023-05-13T22:01:11;101091.38;;;13.17;100.00
21100;BME280;10708;50.824;4.408;2023-05-13T22:06:14;101086.50;;;13.05;100.00
21100;BME280;10708;50.824;4.408;2023-05-13T22:11:16;101079.69;;;12.98;100.00
21100;BME280;10708;50.824;4.408;2023-05-13T22:16:18;101077.25;;;12.93;100.00
21100;BME280;10708;50.824;4.408;2023-05-13T22:21:22;101082.78;;;12.87;100.00
21100;BME280;10708;50.824;4.408;2023-05-13T22:26:24;101080.38;;;12.80;100.00
21100;BME280;10708;50.824;4.408;2023-05-13T22:31:26;101071.88;;;12.72;100.00
21100;BME280;10708;50.824;4.408;2023-05-13T22:36:29;101065.84;;;12.68;100.00
21100;BME280;10708;50.824;4.408;2023-05-13T22:41:32;101074.09;;;12.59;100.00
21100;BME280;10708;50.824;4.408;2023-05-13T22:46:34;101063.75;;;12.53;100.00
21100;BME280;10708;50.824;4.408;2023-05-13T22:51:37;101062.13;;;12.49;100.00
21100;BME280;10708;50.824;4.408;2023-05-13T22:56:39;101057.03;;;12.44;100.00
21100;BME280;10708;50.824;4.408;2023-05-13T23:01:41;101065.09;;;12.40;100.00
21100;BME280;10708;50.824;4.408;2023-05-13T23:06:44;101064.28;;;12.38;100.00
21100;BME280;10708;50.824;4.408;2023-05-13T23:11:46;101068.84;;;12.34;100.00
21100;BME280;10708;50.824;4.408;2023-05-13T23:16:48;101073.47;;;12.28;100.00
21100;BME280;10708;50.824;4.408;2023-05-13T23:21:52;101067.44;;;12.24;100.00
21100;BME280;10708;50.824;4.408;2023-05-13T23:26:54;101064.84;;;12.23;100.00
21100;BME280;10708;50.824;4.408;2023-05-13T23:31:56;101069.25;;;12.22;100.00
21100;BME280;10708;50.824;4.408;2023-05-13T23:36:59;101061.44;;;12.19;100.00
21100;BME280;10708;50.824;4.408;2023-05-13T23:42:01;101070.22;;;12.19;100.00
21100;BME280;10708;50.824;4.408;2023-05-13T23:47:03;101058.06;;;12.15;100.00
21100;BME280;10708;50.824;4.408;2023-05-13T23:52:07;101046.69;;;12.13;100.00
21100;BME280;10708;50.824;4.408;2023-05-13T23:57:09;101050.00;;;12.18;100.00
